Decatur, Illinois
Current Conditions -  °F | °C
As of 12:54 AM on Saturday 25 Oct 2014 (Local Time) from KDEC Reporting Station
Overcast Overcast  
Wind Chill: 16°   Ceiling: 6000
Heat Index: 16°   Visibility: 10mi
Dew Point: 11°   Wind: 13mph
Humidity: 72%   Direction: 210°SSW
Pressure: 29.96"   Gusts: NA
Location:  39.85°N, 88.95°W
Report Text: KDEC 250554Z AUTO 21011KT 10SM SCT041 OVC060 16/11 A2996 RMK AO2 SLP144 T01610111 10167 20133 401830083 58013 TSNO
Loading
Personal Weather Stations






























Interactive Weather Map
Tropical Storm Tracking
New forecast layout! Learn more

10-Day Weather Forecast

Advertisements
Track Severe Weather on mobile